Time;durP1;ratioP1;P1;durP2;ratioP2;P2;SDS_P1;SDS_P2;PMS_P1;PMS_P2;Temp;Humidity;BMP_temperature;BMP_pressure;BME280_temperature;BME280_humidity;BME280_pressure;Samples;Min_cycle;Max_cycle;Signal;HPM_P1;HPM_P2
2022/05/12 00:00:09;;;;;;;;;;;22.50;53.70;;;;;;5072563;28;20392;-50
2022/05/12 00:02:36;;;;;;;;;;;22.40;53.60;;;;;;5071969;28;19929;-49
2022/05/12 00:05:05;;;;;;;;;;;22.40;53.60;;;;;;5074783;28;20419;-47
2022/05/12 00:07:32;;;;;;;;;;;22.40;53.60;;;;;;5092661;28;20299;-51
2022/05/12 00:09:59;;;;;;;;;;;22.40;53.60;;;;;;5076829;28;19924;-50
2022/05/12 00:12:27;;;;;;;;;;;22.50;53.70;;;;;;5076040;28;19931;-52
2022/05/12 00:14:54;;;;;;;;;;;22.40;53.60;;;;;;5075971;28;19931;-47
2022/05/12 00:17:21;;;;;;;;;;;22.40;53.60;;;;;;5075869;28;19947;-48
2022/05/12 00:19:48;;;;;;;;;;;22.40;53.60;;;;;;5075880;28;19924;-48
2022/05/12 00:22:15;;;;;;;;;;;22.40;53.60;;;;;;5076080;28;20299;-51
2022/05/12 00:24:42;;;;;;;;;;;22.40;53.60;;;;;;5075791;28;19924;-48
2022/05/12 00:27:09;;;;;;;;;;;22.40;53.60;;;;;;5076120;28;19935;-48
2022/05/12 00:29:36;;;;;;;;;;;22.40;53.60;;;;;;5075419;28;19932;-47
2022/05/12 00:32:04;;;;;;;;;;;22.40;53.60;;;;;;5075681;28;20019;-51
2022/05/12 00:34:31;;;;;;;;;;;22.40;53.60;;;;;;5075534;28;20352;-49
2022/05/12 00:36:58;;;;;;;;;;;22.40;53.60;;;;;;5075316;28;19928;-48
2022/05/12 00:39:24;;;;;;;;;;;22.40;53.60;;;;;;5075547;28;19924;-47
2022/05/12 00:41:51;;;;;;;;;;;22.40;53.60;;;;;;5084212;28;19925;-48
2022/05/12 00:44:18;;;;;;;;;;;22.40;53.60;;;;;;5095715;28;19932;-49
2022/05/12 00:46:49;;;;;;;;;;;22.40;53.60;;;;;;5095676;28;19924;-47
2022/05/12 00:49:19;;;;;;;;;;;22.40;53.70;;;;;;5095748;28;19924;-48
2022/05/12 00:51:49;;;;;;;;;;;22.40;53.60;;;;;;5095366;28;20395;-48
2022/05/12 00:54:34;;;;;;;;;;;22.40;53.60;;;;;;5091949;28;20303;-48
2022/05/12 00:57:02;;;;;;;;;;;22.40;53.60;;;;;;5055489;28;19931;-49
2022/05/12 00:59:31;;;;;;;;;;;22.40;53.60;;;;;;5055242;28;19933;-49
2022/05/12 01:01:59;;;;;;;;;;;22.40;53.60;;;;;;5079820;28;20391;-52
2022/05/12 01:04:29;;;;;;;;;;;22.40;53.60;;;;;;5091178;28;19932;-51
2022/05/12 01:06:56;;;;;;;;;;;22.40;53.60;;;;;;5075329;28;19924;-48
2022/05/12 01:09:23;;;;;;;;;;;22.40;53.60;;;;;;5075113;28;20296;-48
2022/05/12 01:11:50;;;;;;;;;;;22.40;53.60;;;;;;5074717;28;19924;-48
2022/05/12 01:14:17;;;;;;;;;;;22.40;53.60;;;;;;5075311;28;19931;-50
2022/05/12 01:16:46;;;;;;;;;;;22.40;53.70;;;;;;5074978;28;19947;-49
2022/05/12 01:19:15;;;;;;;;;;;22.40;53.60;;;;;;5074425;28;19939;-50
2022/05/12 01:21:43;;;;;;;;;;;22.40;53.70;;;;;;5073873;28;19925;-48
2022/05/12 01:24:10;;;;;;;;;;;22.40;53.60;;;;;;5074308;28;19925;-48
2022/05/12 01:26:37;;;;;;;;;;;22.40;53.60;;;;;;5074298;28;19924;-50
2022/05/12 01:29:05;;;;;;;;;;;22.40;53.60;;;;;;5074759;28;20434;-49
2022/05/12 01:31:33;;;;;;;;;;;22.40;53.60;;;;;;5074095;28;20296;-49
2022/05/12 01:34:02;;;;;;;;;;;22.40;53.60;;;;;;5074532;28;20341;-49
2022/05/12 01:36:29;;;;;;;;;;;22.40;53.60;;;;;;5074605;28;19932;-54
2022/05/12 01:38:56;;;;;;;;;;;22.40;53.80;;;;;;5074608;28;19931;-49
2022/05/12 01:41:23;;;;;;;;;;;22.40;53.60;;;;;;5079016;28;19924;-51
2022/05/12 01:43:50;;;;;;;;;;;22.40;53.60;;;;;;5094407;28;19924;-48
2022/05/12 01:46:17;;;;;;;;;;;22.40;53.60;;;;;;5094505;28;19930;-53
2022/05/12 01:48:44;;;;;;;;;;;22.40;53.60;;;;;;5093977;28;20018;-49
2022/05/12 01:51:11;;;;;;;;;;;22.40;53.60;;;;;;5084630;28;19931;-48
2022/05/12 01:53:38;;;;;;;;;;;22.40;53.60;;;;;;5073969;28;19932;-47
2022/05/12 01:56:06;;;;;;;;;;;22.40;53.60;;;;;;5074068;28;19932;-53
2022/05/12 01:58:33;;;;;;;;;;;22.40;53.70;;;;;;5084998;28;19924;-50
2022/05/12 02:01:00;;;;;;;;;;;22.40;53.60;;;;;;5088229;28;20330;-51
2022/05/12 02:03:27;;;;;;;;;;;22.40;53.60;;;;;;5073888;28;19924;-48
2022/05/12 02:05:54;;;;;;;;;;;22.40;53.60;;;;;;5074291;28;20027;-51
2022/05/12 02:08:21;;;;;;;;;;;22.40;53.60;;;;;;5073800;28;19925;-49
2022/05/12 02:10:49;;;;;;;;;;;22.40;53.60;;;;;;5089109;28;19930;-50
2022/05/12 02:13:18;;;;;;;;;;;22.40;53.60;;;;;;5072444;28;20392;-51
2022/05/12 02:15:46;;;;;;;;;;;22.40;53.60;;;;;;5073904;28;19946;-47
2022/05/12 02:18:16;;;;;;;;;;;22.40;53.60;;;;;;5073868;28;19924;-53
2022/05/12 02:20:43;;;;;;;;;;;22.40;53.70;;;;;;5073651;28;19947;-48
2022/05/12 02:23:10;;;;;;;;;;;22.40;53.60;;;;;;5073067;28;19925;-48
2022/05/12 02:25:37;;;;;;;;;;;22.40;53.60;;;;;;5073458;28;19931;-48
2022/05/12 02:28:04;;;;;;;;;;;22.40;53.60;;;;;;5073684;28;19925;-48
2022/05/12 02:30:31;;;;;;;;;;;22.40;53.60;;;;;;5073695;28;19947;-49
2022/05/12 02:32:58;;;;;;;;;;;22.40;53.70;;;;;;5073017;28;19932;-49
2022/05/12 02:35:26;;;;;;;;;;;22.40;54.20;;;;;;5073635;28;19929;-53
2022/05/12 02:37:53;;;;;;;;;;;22.40;53.70;;;;;;5073402;28;19925;-52
2022/05/12 02:40:21;;;;;;;;;;;22.40;53.60;;;;;;5073791;28;19928;-51
2022/05/12 02:42:48;;;;;;;;;;;22.40;53.60;;;;;;5089667;28;19935;-50
2022/05/12 02:45:15;;;;;;;;;;;22.40;53.60;;;;;;5093284;28;20372;-56
2022/05/12 02:47:43;;;;;;;;;;;22.40;53.60;;;;;;5081481;28;19931;-50
2022/05/12 02:50:11;;;;;;;;;;;22.40;53.60;;;;;;5073184;28;20343;-49
2022/05/12 02:52:38;;;;;;;;;;;22.40;53.70;;;;;;5072544;28;19928;-49
2022/05/12 02:55:05;;;;;;;;;;;22.40;53.70;;;;;;5086074;28;19924;-51
2022/05/12 02:57:33;;;;;;;;;;;22.40;53.70;;;;;;5084761;28;20273;-49
2022/05/12 03:00:01;;;;;;;;;;;22.40;53.70;;;;;;5073167;28;19928;-50
2022/05/12 03:02:28;;;;;;;;;;;22.40;53.70;;;;;;5073230;28;19932;-53
2022/05/12 03:04:55;;;;;;;;;;;22.40;53.70;;;;;;5073006;28;19931;-47
2022/05/12 03:07:22;;;;;;;;;;;22.40;53.60;;;;;;5072816;28;20380;-51
2022/05/12 03:09:49;;;;;;;;;;;22.40;53.60;;;;;;5072829;28;19924;-56
2022/05/12 03:12:16;;;;;;;;;;;22.40;53.70;;;;;;5073257;28;19929;-53
2022/05/12 03:14:43;;;;;;;;;;;22.40;53.70;;;;;;5072981;28;19924;-47
2022/05/12 03:17:10;;;;;;;;;;;22.40;53.60;;;;;;5073085;28;20331;-51
2022/05/12 03:19:37;;;;;;;;;;;22.40;53.60;;;;;;5073116;28;19975;-50
2022/05/12 03:22:04;;;;;;;;;;;22.40;53.70;;;;;;5072794;28;19924;-55
2022/05/12 03:24:31;;;;;;;;;;;22.40;53.60;;;;;;5072551;28;19954;-51
2022/05/12 03:26:58;;;;;;;;;;;22.40;53.60;;;;;;5072867;28;19931;-54
2022/05/12 03:29:26;;;;;;;;;;;22.40;53.60;;;;;;5072397;28;19929;-48
2022/05/12 03:31:53;;;;;;;;;;;22.40;53.60;;;;;;5072613;28;19930;-49
2022/05/12 03:34:20;;;;;;;;;;;22.40;53.60;;;;;;5072633;28;19928;-48
2022/05/12 03:36:47;;;;;;;;;;;22.40;53.60;;;;;;5073011;28;19928;-48
2022/05/12 03:39:14;;;;;;;;;;;22.40;53.60;;;;;;5072995;28;19924;-48
2022/05/12 03:41:41;;;;;;;;;;;22.40;53.60;;;;;;5079623;28;19925;-48
2022/05/12 03:46:54;;;;;;;;;;;22.40;53.60;;;;;;5076675;28;19932;-52
2022/05/12 03:49:21;;;;;;;;;;;22.40;53.60;;;;;;5076375;28;20398;-50
2022/05/12 03:51:48;;;;;;;;;;;22.40;53.60;;;;;;5090782;28;19935;-48
2022/05/12 03:54:15;;;;;;;;;;;22.40;53.60;;;;;;5084303;28;19924;-50
2022/05/12 03:56:43;;;;;;;;;;;22.40;53.60;;;;;;5076213;28;20380;-48
2022/05/12 03:59:10;;;;;;;;;;;22.40;53.60;;;;;;5076194;28;20384;-47
2022/05/12 04:01:37;;;;;;;;;;;22.40;53.60;;;;;;5076398;28;19924;-48
2022/05/12 04:04:05;;;;;;;;;;;22.40;53.60;;;;;;5076534;28;19960;-47
2022/05/12 04:06:32;;;;;;;;;;;22.40;53.60;;;;;;5075640;28;19931;-47
2022/05/12 04:08:59;;;;;;;;;;;22.50;53.60;;;;;;5075923;28;19924;-48
2022/05/12 04:11:25;;;;;;;;;;;22.40;53.50;;;;;;5076441;28;19931;-49
2022/05/12 04:13:52;;;;;;;;;;;22.50;53.60;;;;;;5075944;28;20296;-49
2022/05/12 04:16:20;;;;;;;;;;;22.50;53.60;;;;;;5076040;28;19925;-48
2022/05/12 04:18:47;;;;;;;;;;;22.50;53.60;;;;;;5076110;28;20380;-48
2022/05/12 04:21:16;;;;;;;;;;;22.50;53.50;;;;;;5075815;28;19925;-48
2022/05/12 04:23:44;;;;;;;;;;;22.50;53.50;;;;;;5075721;28;19924;-48
2022/05/12 04:26:11;;;;;;;;;;;22.50;53.50;;;;;;5075580;28;19935;-49
2022/05/12 04:28:38;;;;;;;;;;;22.50;53.50;;;;;;5075479;28;19925;-48
2022/05/12 04:31:05;;;;;;;;;;;22.50;53.40;;;;;;5075829;28;19939;-48
2022/05/12 04:36:17;;;;;;;;;;;22.50;53.40;;;;;;5075956;28;19947;-47
2022/05/12 04:38:44;;;;;;;;;;;22.60;53.50;;;;;;5075178;28;19924;-48
2022/05/12 04:41:11;;;;;;;;;;;22.60;53.40;;;;;;5078539;28;19931;-48
2022/05/12 04:43:38;;;;;;;;;;;22.50;53.40;;;;;;5096005;28;19931;-48
2022/05/12 04:46:06;;;;;;;;;;;22.60;53.50;;;;;;5084153;28;19928;-49
2022/05/12 04:48:33;;;;;;;;;;;22.60;53.40;;;;;;5095318;28;19924;-48
2022/05/12 04:51:00;;;;;;;;;;;22.60;53.40;;;;;;5095344;28;19935;-48
2022/05/12 04:53:27;;;;;;;;;;;22.60;53.40;;;;;;5089822;28;19978;-49
2022/05/12 04:55:54;;;;;;;;;;;22.60;53.40;;;;;;5086688;28;19924;-47
2022/05/12 04:58:22;;;;;;;;;;;22.60;53.40;;;;;;5095778;28;19970;-48
2022/05/12 05:00:49;;;;;;;;;;;22.60;53.40;;;;;;5095173;28;19950;-55
2022/05/12 05:03:17;;;;;;;;;;;22.60;53.40;;;;;;5095153;28;20426;-54
2022/05/12 05:05:46;;;;;;;;;;;22.60;53.40;;;;;;5095785;28;19932;-48
2022/05/12 05:08:15;;;;;;;;;;;22.60;53.40;;;;;;5095019;28;19931;-50
2022/05/12 05:10:42;;;;;;;;;;;22.60;53.30;;;;;;5074141;28;19931;-55
2022/05/12 05:13:08;;;;;;;;;;;22.60;53.30;;;;;;5074532;28;19924;-50
2022/05/12 05:15:36;;;;;;;;;;;22.60;53.20;;;;;;5074827;28;19970;-52
2022/05/12 05:18:09;;;;;;;;;;;22.70;53.30;;;;;;5075222;28;19932;-51
2022/05/12 05:20:36;;;;;;;;;;;22.70;53.30;;;;;;5074723;28;19924;-52
2022/05/12 05:23:03;;;;;;;;;;;22.70;53.20;;;;;;5074255;28;19954;-47
2022/05/12 05:25:33;;;;;;;;;;;22.70;53.20;;;;;;5074685;28;19931;-48
2022/05/12 05:28:00;;;;;;;;;;;22.70;53.20;;;;;;5074933;28;19924;-51
2022/05/12 05:30:27;;;;;;;;;;;22.70;53.10;;;;;;5074433;28;19924;-49
2022/05/12 05:32:55;;;;;;;;;;;22.80;53.10;;;;;;5074818;28;19925;-50
2022/05/12 05:35:22;;;;;;;;;;;22.80;53.10;;;;;;5074232;28;19925;-49
2022/05/12 05:37:50;;;;;;;;;;;22.80;53.10;;;;;;5074243;28;19928;-50
2022/05/12 05:40:19;;;;;;;;;;;22.80;53.00;;;;;;5074405;28;19924;-48
2022/05/12 05:42:47;;;;;;;;;;;22.80;52.90;;;;;;5078932;28;19928;-50
2022/05/12 05:45:16;;;;;;;;;;;22.80;52.90;;;;;;5094028;28;20396;-52
2022/05/12 05:47:45;;;;;;;;;;;22.80;52.80;;;;;;5094727;28;19923;-48
2022/05/12 05:50:14;;;;;;;;;;;22.90;52.80;;;;;;5094641;28;19924;-48
2022/05/12 05:55:26;;;;;;;;;;;23.00;52.70;;;;;;5053747;28;19925;-49
2022/05/12 05:57:53;;;;;;;;;;;23.00;52.70;;;;;;5053996;28;19948;-50
2022/05/12 06:00:27;;;;;;;;;;;22.90;52.50;;;;;;5054435;28;19975;-50
2022/05/12 06:02:54;;;;;;;;;;;23.00;52.60;;;;;;5053920;28;20015;-48
2022/05/12 06:05:21;;;;;;;;;;;23.00;52.60;;;;;;5057978;28;19929;-49
2022/05/12 06:07:48;;;;;;;;;;;23.00;52.50;;;;;;5073742;28;19932;-48
2022/05/12 06:10:16;;;;;;;;;;;23.00;52.50;;;;;;5073581;28;19936;-48
2022/05/12 06:12:43;;;;;;;;;;;23.00;52.50;;;;;;5073359;28;19931;-48
2022/05/12 06:15:10;;;;;;;;;;;23.10;52.60;;;;;;5089693;28;19975;-50
2022/05/12 06:17:38;;;;;;;;;;;23.10;52.60;;;;;;5073468;28;19978;-54
2022/05/12 06:20:06;;;;;;;;;;;23.10;52.50;;;;;;5073306;28;19924;-49
2022/05/12 06:22:33;;;;;;;;;;;23.10;52.50;;;;;;5073404;28;19925;-49
2022/05/12 06:25:02;;;;;;;;;;;23.10;52.50;;;;;;5073160;28;19924;-50
2022/05/12 06:27:29;;;;;;;;;;;23.10;52.40;;;;;;5073625;28;20363;-49
2022/05/12 06:29:56;;;;;;;;;;;23.10;52.40;;;;;;5073461;28;19932;-48
2022/05/12 06:32:23;;;;;;;;;;;23.10;52.40;;;;;;5073389;28;19933;-51
2022/05/12 06:34:50;;;;;;;;;;;23.10;52.30;;;;;;5072808;28;19928;-50
2022/05/12 06:37:17;;;;;;;;;;;23.20;52.40;;;;;;5073300;28;19925;-48
2022/05/12 06:39:44;;;;;;;;;;;23.20;52.30;;;;;;5083592;28;19928;-51
2022/05/12 06:42:12;;;;;;;;;;;23.10;52.20;;;;;;5093359;28;20379;-52
2022/05/12 06:44:42;;;;;;;;;;;23.20;52.20;;;;;;5093752;28;19924;-47
2022/05/12 06:47:09;;;;;;;;;;;23.20;52.20;;;;;;5093762;28;20291;-49
2022/05/12 06:49:37;;;;;;;;;;;23.20;52.20;;;;;;5092834;28;19924;-48
2022/05/12 06:52:05;;;;;;;;;;;23.30;52.20;;;;;;5094017;28;19924;-53
2022/05/12 06:54:33;;;;;;;;;;;23.30;52.20;;;;;;5078857;28;19929;-48
2022/05/12 06:56:59;;;;;;;;;;;23.30;52.20;;;;;;5071892;28;19925;-51
2022/05/12 06:59:27;;;;;;;;;;;23.30;52.10;;;;;;5072906;28;19931;-50
2022/05/12 07:01:54;;;;;;;;;;;23.30;52.10;;;;;;5073049;28;19925;-49
2022/05/12 07:04:24;;;;;;;;;;;23.30;52.10;;;;;;5072921;28;20455;-48
2022/05/12 07:06:51;;;;;;;;;;;23.30;52.10;;;;;;5073139;28;19929;-53
2022/05/12 07:09:20;;;;;;;;;;;23.30;52.10;;;;;;5072725;28;19925;-52
2022/05/12 07:11:46;;;;;;;;;;;23.30;52.10;;;;;;5072812;28;19928;-50
2022/05/12 07:14:14;;;;;;;;;;;23.30;52.10;;;;;;5072969;28;19924;-50
2022/05/12 07:16:42;;;;;;;;;;;23.30;52.10;;;;;;5072330;28;20403;-52
2022/05/12 07:19:11;;;;;;;;;;;23.30;52.00;;;;;;5074772;28;19950;-50
2022/05/12 07:27:09;;;;;;;;;;;23.40;52.00;;;;;;5077010;28;19931;-51
2022/05/12 07:29:37;;;;;;;;;;;23.40;52.00;;;;;;5076467;28;20019;-55
2022/05/12 07:32:04;;;;;;;;;;;23.40;52.00;;;;;;5076886;28;19931;-48
2022/05/12 07:34:32;;;;;;;;;;;23.40;51.90;;;;;;5076417;28;19933;-53
2022/05/12 07:36:59;;;;;;;;;;;23.40;51.90;;;;;;5094863;28;19924;-55
2022/05/12 07:39:28;;;;;;;;;;;23.40;51.80;;;;;;5077490;28;19928;-50
2022/05/12 07:41:57;;;;;;;;;;;23.50;51.90;;;;;;5086384;28;19967;-50
2022/05/12 07:44:31;;;;;;;;;;;23.40;51.80;;;;;;5096551;28;19942;-52
2022/05/12 07:47:03;;;;;;;;;;;23.50;51.90;;;;;;5096827;28;19924;-49
2022/05/12 07:49:32;;;;;;;;;;;23.50;51.90;;;;;;5096156;28;20372;-48
2022/05/12 07:52:00;;;;;;;;;;;23.50;51.80;;;;;;5097075;28;20296;-50
2022/05/12 07:54:27;;;;;;;;;;;23.50;51.90;;;;;;5082126;28;20410;-52
2022/05/12 07:56:54;;;;;;;;;;;23.50;51.80;;;;;;5096408;28;19971;-49
2022/05/12 07:59:21;;;;;;;;;;;23.50;51.80;;;;;;5079788;28;19989;-52
2022/05/12 08:01:48;;;;;;;;;;;23.50;51.80;;;;;;5076227;28;20388;-48
2022/05/12 08:04:15;;;;;;;;;;;23.50;51.80;;;;;;5076244;28;19928;-49
2022/05/12 08:06:43;;;;;;;;;;;23.50;51.90;;;;;;5076013;28;19924;-49
2022/05/12 08:09:11;;;;;;;;;;;23.50;51.90;;;;;;5076108;28;19924;-49
2022/05/12 08:11:39;;;;;;;;;;;23.50;51.90;;;;;;5076319;28;19925;-50
2022/05/12 08:14:06;;;;;;;;;;;23.50;51.90;;;;;;5075918;28;20399;-49
2022/05/12 08:16:34;;;;;;;;;;;23.50;52.00;;;;;;5075829;28;19924;-51
2022/05/12 08:19:01;;;;;;;;;;;23.50;52.00;;;;;;5075929;28;19924;-49
2022/05/12 08:21:28;;;;;;;;;;;23.50;52.10;;;;;;5076142;28;19972;-52
2022/05/12 08:23:55;;;;;;;;;;;23.40;52.10;;;;;;5075529;28;20359;-53
2022/05/12 08:26:23;;;;;;;;;;;23.40;52.10;;;;;;5075902;28;19951;-55
2022/05/12 08:28:50;;;;;;;;;;;23.40;52.20;;;;;;5075223;28;19931;-53
2022/05/12 08:31:20;;;;;;;;;;;23.40;52.20;;;;;;5078189;28;19924;-49
2022/05/12 08:33:47;;;;;;;;;;;23.40;52.20;;;;;;5095416;28;19924;-49
2022/05/12 08:36:14;;;;;;;;;;;23.40;52.20;;;;;;5087184;28;19950;-51
2022/05/12 08:38:44;;;;;;;;;;;23.40;52.20;;;;;;5075732;28;19928;-49
2022/05/12 08:41:12;;;;;;;;;;;23.40;52.30;;;;;;5078660;28;20022;-54
2022/05/12 08:43:45;;;;;;;;;;;23.40;52.30;;;;;;5095629;28;19993;-53
2022/05/12 08:46:35;;;;;;;;;;;23.40;52.30;;;;;;5095717;28;19928;-55
2022/05/12 08:49:08;;;;;;;;;;;23.40;52.30;;;;;;5089740;28;20384;-50
2022/05/12 08:51:36;;;;;;;;;;;23.40;52.40;;;;;;5095326;28;19924;-50
2022/05/12 08:54:07;;;;;;;;;;;23.40;52.90;;;;;;5084635;28;19925;-52
2022/05/12 08:56:35;;;;;;;;;;;23.40;52.40;;;;;;5075266;28;19931;-54
2022/05/12 08:59:02;;;;;;;;;;;23.50;52.40;;;;;;5075042;28;19928;-51
2022/05/12 09:01:38;;;;;;;;;;;23.50;52.40;;;;;;5075216;28;19950;-53
2022/05/12 09:04:17;;;;;;;;;;;23.50;52.30;;;;;;5075347;28;19932;-49
2022/05/12 09:07:02;;;;;;;;;;;23.50;52.30;;;;;;5075356;28;19925;-52
2022/05/12 09:09:39;;;;;;;;;;;23.50;52.20;;;;;;5074536;28;19932;-52
2022/05/12 09:12:15;;;;;;;;;;;23.60;52.20;;;;;;5075066;28;20384;-48
2022/05/12 09:14:46;;;;;;;;;;;23.60;52.20;;;;;;5074415;28;20384;-52
2022/05/12 09:17:18;;;;;;;;;;;23.60;52.10;;;;;;5074824;28;19974;-50
2022/05/12 09:19:45;;;;;;;;;;;23.60;52.10;;;;;;5074374;28;20003;-50
2022/05/12 09:22:12;;;;;;;;;;;23.60;52.10;;;;;;5056829;28;19928;-50
2022/05/12 09:24:41;;;;;;;;;;;23.70;52.10;;;;;;5054851;28;19928;-55
2022/05/12 09:27:09;;;;;;;;;;;23.70;52.00;;;;;;5054711;28;19978;-53
2022/05/12 09:29:44;;;;;;;;;;;23.70;52.00;;;;;;5090841;28;19931;-50
2022/05/12 09:32:11;;;;;;;;;;;23.70;51.90;;;;;;5094903;28;20276;-49
2022/05/12 09:34:39;;;;;;;;;;;23.80;52.00;;;;;;5084236;28;19928;-48
2022/05/12 09:37:12;;;;;;;;;;;23.80;51.90;;;;;;5074923;28;19925;-49
2022/05/12 09:39:41;;;;;;;;;;;23.80;51.80;;;;;;5073069;28;19973;-50
2022/05/12 09:42:15;;;;;;;;;;;23.90;51.90;;;;;;5084757;28;19969;-48
2022/05/12 09:44:56;;;;;;;;;;;23.90;52.00;;;;;;5094491;28;19924;-48
2022/05/12 09:47:23;;;;;;;;;;;23.80;51.90;;;;;;5094301;28;19924;-52
2022/05/12 09:49:51;;;;;;;;;;;23.80;51.80;;;;;;5094440;28;19928;-48
2022/05/12 09:52:35;;;;;;;;;;;23.90;51.90;;;;;;5053369;28;19925;-51
2022/05/12 09:55:13;;;;;;;;;;;23.90;51.80;;;;;;5072786;28;20381;-50
2022/05/12 09:57:47;;;;;;;;;;;23.90;51.80;;;;;;5073867;28;19924;-48
2022/05/12 10:00:25;;;;;;;;;;;23.90;51.80;;;;;;5074206;28;20399;-49
2022/05/12 10:09:04;;;;;;;;;;;23.90;51.80;;;;;;5051397;28;19928;-48
2022/05/12 10:11:50;;;;;;;;;;;23.90;51.80;;;;;;5051171;28;19925;-52
2022/05/12 10:14:23;;;;;;;;;;;23.90;51.80;;;;;;5051759;28;20303;-52
2022/05/12 10:16:51;;;;;;;;;;;23.90;51.90;;;;;;5051105;28;19925;-47
2022/05/12 10:19:22;;;;;;;;;;;23.80;51.90;;;;;;5051277;28;19924;-49
2022/05/12 10:22:05;;;;;;;;;;;23.90;52.00;;;;;;5051111;28;19925;-54
2022/05/12 10:24:33;;;;;;;;;;;23.90;52.00;;;;;;5054516;28;19935;-47
2022/05/12 10:27:09;;;;;;;;;;;23.90;52.00;;;;;;5071353;28;19970;-51
2022/05/12 10:29:50;;;;;;;;;;;23.90;52.00;;;;;;5071340;28;20431;-49
2022/05/12 10:32:19;;;;;;;;;;;23.90;51.90;;;;;;5050527;28;21697;-50
2022/05/12 10:34:48;;;;;;;;;;;23.90;51.90;;;;;;5050892;28;19929;-52
2022/05/12 10:37:34;;;;;;;;;;;23.90;51.80;;;;;;5051299;28;19979;-50
2022/05/12 10:40:04;;;;;;;;;;;23.90;51.80;;;;;;5050985;28;19940;-51
2022/05/12 10:42:34;;;;;;;;;;;23.90;51.80;;;;;;5078562;28;19924;-49
2022/05/12 10:45:12;;;;;;;;;;;23.90;51.80;;;;;;5093610;28;19924;-49
2022/05/12 10:47:57;;;;;;;;;;;23.90;51.90;;;;;;5079668;28;19924;-47
2022/05/12 10:50:29;;;;;;;;;;;23.90;51.90;;;;;;5073136;28;19924;-47
2022/05/12 10:53:03;;;;;;;;;;;23.90;51.90;;;;;;5073238;28;19928;-53
2022/05/12 10:55:36;;;;;;;;;;;23.90;51.80;;;;;;5080980;28;19924;-51
2022/05/12 10:58:03;;;;;;;;;;;23.90;51.80;;;;;;5093419;28;19931;-51
2022/05/12 11:00:44;;;;;;;;;;;23.90;51.80;;;;;;5093080;28;19931;-47
2022/05/12 11:03:27;;;;;;;;;;;23.90;51.80;;;;;;5093076;28;20384;-49
2022/05/12 11:05:56;;;;;;;;;;;23.90;51.80;;;;;;5093007;28;19950;-50
2022/05/12 11:08:36;;;;;;;;;;;23.90;51.90;;;;;;5091023;28;20007;-51
2022/05/12 11:11:24;;;;;;;;;;;23.90;52.00;;;;;;5073181;28;20445;-47
2022/05/12 11:13:57;;;;;;;;;;;23.80;51.90;;;;;;5072442;28;19925;-48
2022/05/12 11:16:30;;;;;;;;;;;23.80;52.00;;;;;;5070733;28;20392;-50
2022/05/12 11:19:15;;;;;;;;;;;23.80;52.00;;;;;;5053116;28;19925;-52
2022/05/12 11:21:51;;;;;;;;;;;23.80;52.10;;;;;;5085037;28;20290;-48
2022/05/12 11:24:30;;;;;;;;;;;23.80;52.10;;;;;;5092600;28;19924;-47
2022/05/12 11:26:58;;;;;;;;;;;23.80;52.20;;;;;;5084012;28;19931;-49
2022/05/12 11:29:44;;;;;;;;;;;23.80;52.20;;;;;;5071593;28;19932;-49
2022/05/12 11:32:23;;;;;;;;;;;23.70;52.10;;;;;;5073062;28;20341;-49
2022/05/12 11:35:10;;;;;;;;;;;23.70;52.10;;;;;;5072885;28;20006;-49
2022/05/12 11:37:38;;;;;;;;;;;23.70;52.20;;;;;;5068835;28;19932;-50
2022/05/12 11:40:25;;;;;;;;;;;23.70;52.20;;;;;;5073126;28;20257;-50
2022/05/12 11:45:48;;;;;;;;;;;23.70;52.30;;;;;;5072831;28;20350;-48
2022/05/12 11:48:35;;;;;;;;;;;23.70;52.30;;;;;;5072236;28;19924;-50
2022/05/12 11:51:08;;;;;;;;;;;23.70;52.30;;;;;;5072637;28;19929;-47
2022/05/12 11:53:55;;;;;;;;;;;23.70;52.30;;;;;;5072167;28;20334;-48
2022/05/12 11:56:35;;;;;;;;;;;23.70;52.30;;;;;;5088299;28;19935;-50
2022/05/12 11:59:12;;;;;;;;;;;23.70;52.40;;;;;;5093398;28;19931;-49
2022/05/12 12:01:39;;;;;;;;;;;23.70;52.40;;;;;;5092448;28;19970;-48
2022/05/12 12:04:12;;;;;;;;;;;23.70;52.40;;;;;;5093282;28;20276;-48
2022/05/12 12:06:40;;;;;;;;;;;23.70;52.40;;;;;;5096708;28;19925;-54
2022/05/12 12:09:33;;;;;;;;;;;23.70;52.40;;;;;;5088834;28;19947;-51
2022/05/12 12:12:02;;;;;;;;;;;23.70;52.40;;;;;;5074999;28;19924;-54
2022/05/12 12:14:50;;;;;;;;;;;23.70;52.40;;;;;;5075781;28;19928;-51
2022/05/12 12:17:29;;;;;;;;;;;23.70;52.40;;;;;;5078248;28;19932;-49
2022/05/12 12:19:58;;;;;;;;;;;23.60;52.40;;;;;;5075921;28;19931;-50
2022/05/12 12:22:26;;;;;;;;;;;23.70;52.40;;;;;;5075531;28;19925;-52
2022/05/12 12:25:16;;;;;;;;;;;23.70;52.40;;;;;;5075830;28;19932;-48
2022/05/12 12:27:52;;;;;;;;;;;23.70;52.40;;;;;;5072875;28;20312;-53
2022/05/12 12:30:31;;;;;;;;;;;23.70;52.40;;;;;;5075725;28;19925;-49
2022/05/12 12:33:13;;;;;;;;;;;23.70;52.40;;;;;;5075493;28;19924;-50
2022/05/12 12:35:49;;;;;;;;;;;23.70;52.40;;;;;;5075722;28;19924;-54
2022/05/12 12:38:35;;;;;;;;;;;23.60;52.40;;;;;;5075910;28;19924;-54
2022/05/12 12:41:02;;;;;;;;;;;23.70;52.50;;;;;;5077695;28;19937;-53
2022/05/12 12:43:43;;;;;;;;;;;23.70;52.50;;;;;;5079697;28;19929;-50
2022/05/12 12:46:21;;;;;;;;;;;23.70;52.50;;;;;;5075351;28;19925;-52
2022/05/12 12:48:51;;;;;;;;;;;23.70;52.40;;;;;;5075146;28;19931;-55
2022/05/12 12:51:29;;;;;;;;;;;23.70;52.40;;;;;;5074640;28;19924;-53
2022/05/12 12:57:05;;;;;;;;;;;23.70;52.40;;;;;;5074987;28;19939;-54
2022/05/12 12:59:35;;;;;;;;;;;23.70;53.10;;;;;;5075728;28;20026;-53
2022/05/12 13:02:02;;;;;;;;;;;23.70;52.50;;;;;;5075268;28;19928;-49
2022/05/12 13:04:32;;;;;;;;;;;23.70;52.50;;;;;;5075524;28;19925;-53
2022/05/12 13:07:04;;;;;;;;;;;23.60;52.40;;;;;;5075360;28;19931;-54
2022/05/12 13:09:33;;;;;;;;;;;23.70;52.60;;;;;;5075047;28;19932;-55
2022/05/12 13:12:08;;;;;;;;;;;23.60;52.40;;;;;;5074901;28;19928;-53
2022/05/12 13:14:37;;;;;;;;;;;23.70;52.50;;;;;;5094130;28;19977;-53
2022/05/12 13:17:05;;;;;;;;;;;23.70;52.50;;;;;;5087924;28;19968;-55
2022/05/12 13:19:35;;;;;;;;;;;23.70;52.60;;;;;;5075076;28;20370;-52
2022/05/12 13:22:03;;;;;;;;;;;23.70;52.50;;;;;;5074708;28;19928;-55
2022/05/12 13:24:32;;;;;;;;;;;23.70;52.60;;;;;;5074476;28;20264;-52
2022/05/12 13:27:00;;;;;;;;;;;23.70;52.60;;;;;;5074445;28;19924;-50
2022/05/12 13:29:29;;;;;;;;;;;23.70;52.60;;;;;;5074829;28;19924;-49
2022/05/12 13:32:00;;;;;;;;;;;23.70;52.60;;;;;;5074781;28;20295;-54
2022/05/12 13:34:31;;;;;;;;;;;23.70;52.60;;;;;;5074171;28;20277;-50
2022/05/12 13:37:13;;;;;;;;;;;23.60;52.50;;;;;;5074548;28;19924;-48
2022/05/12 13:39:48;;;;;;;;;;;23.60;53.10;;;;;;5069753;28;19928;-49
2022/05/12 13:42:39;;;;;;;;;;;23.70;52.60;;;;;;5086380;28;20436;-48
2022/05/12 13:45:08;;;;;;;;;;;23.70;52.60;;;;;;5089418;28;19963;-50
2022/05/12 13:47:37;;;;;;;;;;;23.60;52.50;;;;;;5094641;28;19928;-48
2022/05/12 13:50:06;;;;;;;;;;;23.70;52.60;;;;;;5094333;28;19950;-49
2022/05/12 13:52:46;;;;;;;;;;;23.60;52.60;;;;;;5094310;28;19924;-48
2022/05/12 13:55:21;;;;;;;;;;;23.60;52.60;;;;;;5094371;28;20399;-47
2022/05/12 13:58:07;;;;;;;;;;;23.60;52.60;;;;;;5093942;28;19959;-48
2022/05/12 14:00:36;;;;;;;;;;;23.70;52.60;;;;;;5094562;28;19931;-52
2022/05/12 14:03:33;;;;;;;;;;;23.60;52.60;;;;;;5080009;28;19931;-48
2022/05/12 14:06:28;;;;;;;;;;;23.70;52.70;;;;;;5069576;28;19924;-49
2022/05/12 14:09:03;;;;;;;;;;;23.60;52.60;;;;;;5076815;28;19939;-49
2022/05/12 14:11:30;;;;;;;;;;;23.70;52.70;;;;;;5093955;28;19924;-52
2022/05/12 14:19:49;;;;;;;;;;;23.60;52.60;;;;;;5011566;28;20352;-51
2022/05/12 14:22:17;;;;;;;;;;;23.60;52.60;;;;;;5011649;28;19925;-50
2022/05/12 14:24:47;;;;;;;;;;;23.60;52.60;;;;;;5011506;28;19932;-50
2022/05/12 14:27:16;;;;;;;;;;;23.60;52.60;;;;;;5011364;28;19929;-49
2022/05/12 14:29:43;;;;;;;;;;;23.70;52.70;;;;;;5011751;28;19948;-48
2022/05/12 14:32:12;;;;;;;;;;;23.60;52.60;;;;;;5011443;28;19925;-48
2022/05/12 14:34:40;;;;;;;;;;;23.70;52.70;;;;;;5011595;28;19929;-51
2022/05/12 14:37:07;;;;;;;;;;;23.60;52.60;;;;;;5011479;28;19925;-49
2022/05/12 14:39:34;;;;;;;;;;;23.70;52.70;;;;;;5011413;28;20082;-50
2022/05/12 14:42:02;;;;;;;;;;;23.60;52.60;;;;;;5021441;28;19965;-50
2022/05/12 14:44:30;;;;;;;;;;;23.60;52.60;;;;;;5031266;28;19925;-49
2022/05/12 14:47:01;;;;;;;;;;;23.70;52.70;;;;;;5037341;28;19925;-49
2022/05/12 14:49:28;;;;;;;;;;;23.60;52.60;;;;;;5073387;28;19939;-47
2022/05/12 14:51:55;;;;;;;;;;;23.70;52.70;;;;;;5073205;28;19931;-48
2022/05/12 14:54:22;;;;;;;;;;;23.70;52.70;;;;;;5073102;28;20104;-48
2022/05/12 14:56:49;;;;;;;;;;;23.70;52.70;;;;;;5073122;28;19928;-49
2022/05/12 14:59:16;;;;;;;;;;;23.70;52.70;;;;;;5073063;28;19925;-49
2022/05/12 15:01:44;;;;;;;;;;;23.70;52.80;;;;;;5073113;28;19993;-47
2022/05/12 15:04:11;;;;;;;;;;;23.70;52.80;;;;;;5073071;28;19924;-48